createdAt,value
2023-01-25T00:02:20.990Z,101611.36
2023-01-25T00:04:49.270Z,101614.56
2023-01-25T00:07:17.529Z,101616.27
2023-01-25T00:09:45.819Z,101618.71
2023-01-25T00:12:13.952Z,101615.14
2023-01-25T00:14:42.101Z,101614.09
2023-01-25T00:17:10.295Z,101614.34
2023-01-25T00:19:40.588Z,101614.84
2023-01-25T00:22:08.742Z,101611.98
2023-01-25T00:24:36.907Z,101617.24
2023-01-25T00:27:06.392Z,101615.01
2023-01-25T00:29:41.868Z,101614.09
2023-01-25T00:32:15.342Z,101609.98
2023-01-25T00:34:48.967Z,101608.83
2023-01-25T00:37:35.533Z,101608.29
2023-01-25T00:40:05.963Z,101612.29
2023-01-25T00:42:34.313Z,101616.34
2023-01-25T00:45:06.162Z,101613.52
2023-01-25T00:47:41.952Z,101612.46
2023-01-25T00:50:11.732Z,101616.56
2023-01-25T00:52:41.123Z,101623.75
2023-01-25T00:55:10.238Z,101622.88
2023-01-25T00:57:38.644Z,101621.38
2023-01-25T01:00:07.513Z,101619.23
2023-01-25T01:02:35.736Z,101620.15
2023-01-25T01:05:04.245Z,101617.25
2023-01-25T01:07:33.549Z,101617.52
2023-01-25T01:10:01.828Z,101618.27
2023-01-25T01:12:30.102Z,101620.52
2023-01-25T01:15:02.770Z,101619.99
2023-01-25T01:17:31.020Z,101617.05
2023-01-25T01:19:59.255Z,101614.64
2023-01-25T01:22:27.432Z,101612.61
2023-01-25T01:24:55.600Z,101612.13
2023-01-25T01:27:23.680Z,101613.59
2023-01-25T01:29:52.343Z,101607.36
2023-01-25T01:32:20.634Z,101607.88
2023-01-25T01:34:50.957Z,101601.84
2023-01-25T01:37:20.195Z,101602.92
2023-01-25T01:39:48.367Z,101603.49
2023-01-25T01:42:16.486Z,101604.34
2023-01-25T01:44:52.702Z,101599.60
2023-01-25T01:47:25.790Z,101597.44
2023-01-25T01:50:04.907Z,101597.84
2023-01-25T01:52:37.476Z,101595.02
2023-01-25T01:55:13.476Z,101590.21
2023-01-25T01:58:00.516Z,101588.86
2023-01-25T02:00:33.250Z,101592.01
2023-01-25T02:03:03.016Z,101593.83
2023-01-25T02:05:47.730Z,101595.17
2023-01-25T02:08:16.033Z,101594.23
2023-01-25T02:10:44.476Z,101591.18
2023-01-25T02:13:13.136Z,101589.21
2023-01-25T02:15:51.006Z,101587.11
2023-01-25T02:18:20.254Z,101584.33
2023-01-25T02:20:57.992Z,101583.40
2023-01-25T02:24:07.978Z,101575.02
2023-01-25T02:26:40.704Z,101569.48
2023-01-25T02:29:11.524Z,101567.67
2023-01-25T02:31:46.201Z,101566.05
2023-01-25T02:34:16.653Z,101567.63
2023-01-25T02:36:44.917Z,101569.48
2023-01-25T02:39:20.073Z,101564.89
2023-01-25T02:41:48.813Z,101563.49
2023-01-25T02:44:22.235Z,101565.73
2023-01-25T02:46:50.610Z,101563.08
2023-01-25T02:49:19.414Z,101559.46
2023-01-25T02:51:52.523Z,101555.78
2023-01-25T02:54:21.009Z,101558.64
2023-01-25T02:56:49.291Z,101556.61
2023-01-25T02:59:19.177Z,101554.96
2023-01-25T03:01:50.773Z,101554.89
2023-01-25T03:04:18.956Z,101550.28
2023-01-25T03:06:49.196Z,101549.14
2023-01-25T03:09:18.634Z,101546.89
2023-01-25T03:11:48.199Z,101546.52
2023-01-25T03:14:19.623Z,101547.11
2023-01-25T03:16:47.670Z,101548.65
2023-01-25T03:19:17.220Z,101550.75
2023-01-25T03:21:46.847Z,101551.79
2023-01-25T03:24:15.501Z,101550.13
2023-01-25T03:27:05.930Z,101550.17
2023-01-25T03:29:42.271Z,101555.61
2023-01-25T03:32:14.973Z,101558.61
2023-01-25T03:34:43.507Z,101556.70
2023-01-25T03:37:12.135Z,101554.67
2023-01-25T03:39:41.471Z,101553.80
2023-01-25T03:42:10.014Z,101553.25
2023-01-25T03:44:38.222Z,101554.45
2023-01-25T03:47:06.606Z,101556.50
2023-01-25T03:49:34.969Z,101553.33
2023-01-25T03:52:04.102Z,101549.89
2023-01-25T03:54:45.650Z,101550.16
2023-01-25T03:57:17.560Z,101550.55
2023-01-25T04:02:59.805Z,101549.55
2023-01-25T04:05:28.621Z,101551.02
2023-01-25T04:08:01.687Z,101548.20
2023-01-25T04:39:16.155Z,101549.62
2023-01-25T04:41:44.847Z,101545.48
2023-01-25T04:44:14.153Z,101545.55
2023-01-25T04:46:42.675Z,101543.70
2023-01-25T04:49:10.854Z,101543.80
2023-01-25T04:51:42.087Z,101542.11
2023-01-25T04:54:10.415Z,101542.55
2023-01-25T04:56:40.108Z,101541.49
2023-01-25T04:59:09.276Z,101546.98
2023-01-25T05:01:37.571Z,101547.30
2023-01-25T05:04:07.294Z,101545.60
2023-01-25T05:06:43.036Z,101541.92
2023-01-25T05:09:11.239Z,101536.34
2023-01-25T05:11:40.964Z,101532.55
2023-01-25T05:14:13.524Z,101541.55
2023-01-25T05:16:43.711Z,101544.90
2023-01-25T05:19:12.429Z,101551.13
2023-01-25T05:21:58.345Z,101555.96
2023-01-25T05:24:33.184Z,101558.24
2023-01-25T05:27:04.182Z,101558.04
2023-01-25T05:29:51.322Z,101551.81
2023-01-25T05:32:24.751Z,101548.42
2023-01-25T05:34:53.545Z,101548.69
2023-01-25T05:37:21.847Z,101545.45
2023-01-25T05:39:56.143Z,101539.32
2023-01-25T05:42:25.225Z,101531.71
2023-01-25T05:44:54.842Z,101529.02
2023-01-25T05:47:23.365Z,101537.55
2023-01-25T05:49:51.712Z,101541.87
2023-01-25T05:52:32.456Z,101542.53
2023-01-25T05:55:01.352Z,101545.10
2023-01-25T05:57:29.638Z,101546.11
2023-01-25T05:59:59.056Z,101549.65
2023-01-25T06:02:27.324Z,101550.67
2023-01-25T06:04:55.514Z,101547.60
2023-01-25T06:07:24.823Z,101553.55
2023-01-25T06:09:53.479Z,101553.31
2023-01-25T06:12:23.539Z,101555.09
2023-01-25T06:14:54.129Z,101559.31
2023-01-25T06:17:22.392Z,101564.41
2023-01-25T06:19:58.251Z,101559.50
2023-01-25T06:22:39.607Z,101564.14
2023-01-25T06:25:08.613Z,101562.44
2023-01-25T06:27:37.019Z,101563.63
2023-01-25T06:30:05.505Z,101561.11
2023-01-25T06:32:38.647Z,101559.79
2023-01-25T06:35:09.651Z,101562.42
2023-01-25T06:37:38.698Z,101567.28
2023-01-25T06:40:07.553Z,101562.74
2023-01-25T06:42:36.019Z,101564.34
2023-01-25T06:45:04.953Z,101568.66
2023-01-25T06:47:33.199Z,101566.44
2023-01-25T06:50:05.233Z,101567.27
2023-01-25T06:52:36.607Z,101570.92
2023-01-25T06:55:08.458Z,101576.30
2023-01-25T06:57:36.728Z,101577.31
2023-01-25T07:00:06.070Z,101580.78
2023-01-25T07:02:34.371Z,101575.91
2023-01-25T07:05:02.776Z,101570.27
2023-01-25T07:07:31.064Z,101566.12
2023-01-25T07:10:02.368Z,101563.48
2023-01-25T07:12:30.961Z,101562.10
2023-01-25T07:14:59.163Z,101562.35
2023-01-25T07:17:27.271Z,101560.20
2023-01-25T07:19:55.336Z,101561.05
2023-01-25T07:22:23.689Z,101566.19
2023-01-25T07:25:03.328Z,101568.08
2023-01-25T07:27:34.411Z,101568.09
2023-01-25T07:30:03.324Z,101564.77
2023-01-25T07:32:34.562Z,101564.59
2023-01-25T07:35:02.795Z,101560.16
2023-01-25T07:37:31.053Z,101559.81
2023-01-25T07:39:59.147Z,101560.05
2023-01-25T07:42:27.319Z,101561.71
2023-01-25T07:45:12.388Z,101559.24
2023-01-25T07:47:45.818Z,101560.30
2023-01-25T07:50:14.277Z,101559.98
2023-01-25T07:52:43.098Z,101562.08
2023-01-25T07:55:11.687Z,101563.73
2023-01-25T07:57:40.348Z,101565.63
2023-01-25T08:00:10.180Z,101563.95
2023-01-25T08:02:43.864Z,101567.81
2023-01-25T08:05:14.361Z,101564.43
2023-01-25T08:07:42.527Z,101568.30
2023-01-25T08:10:11.377Z,101566.10
2023-01-25T08:12:39.759Z,101563.75
2023-01-25T08:15:17.467Z,101561.79
2023-01-25T08:17:45.676Z,101561.15
2023-01-25T08:20:19.703Z,101560.19
2023-01-25T08:22:47.874Z,101559.86
2023-01-25T08:25:16.109Z,101556.58
2023-01-25T08:27:44.337Z,101557.97
2023-01-25T08:30:13.126Z,101557.63
2023-01-25T08:32:41.282Z,101557.63
2023-01-25T08:35:09.905Z,101555.25
2023-01-25T08:37:38.337Z,101555.68
2023-01-25T08:40:07.945Z,101557.73
2023-01-25T08:42:36.740Z,101557.41
2023-01-25T08:45:07.178Z,101557.13
2023-01-25T08:47:36.371Z,101554.27
2023-01-25T08:50:05.062Z,101553.11
2023-01-25T08:52:33.310Z,101553.38
2023-01-25T08:55:03.570Z,101557.05
2023-01-25T08:57:31.692Z,101551.03
2023-01-25T08:59:59.773Z,101548.09
2023-01-25T09:02:28.148Z,101549.33
2023-01-25T09:04:56.277Z,101552.69
2023-01-25T09:07:24.520Z,101552.30
2023-01-25T09:09:52.719Z,101551.15
2023-01-25T09:12:20.957Z,101553.04
2023-01-25T09:14:51.068Z,101553.34
2023-01-25T09:17:19.149Z,101547.73
2023-01-25T09:22:22.343Z,101539.55
2023-01-25T09:24:53.044Z,101538.14
2023-01-25T09:27:21.249Z,101539.45
2023-01-25T09:30:01.067Z,101535.90
2023-01-25T09:32:30.975Z,101533.95
2023-01-25T09:34:59.398Z,101528.61
2023-01-25T09:37:30.847Z,101525.91
2023-01-25T09:39:59.054Z,101521.16
2023-01-25T09:43:00.737Z,101517.55
2023-01-25T09:45:35.088Z,101517.24
2023-01-25T09:48:13.596Z,101512.86
2023-01-25T09:50:52.175Z,101506.45
2023-01-25T09:53:41.908Z,101503.70
2023-01-25T09:56:27.898Z,101498.55
2023-01-25T09:59:01.093Z,101498.77
2023-01-25T10:01:56.015Z,101493.34
2023-01-25T10:04:27.899Z,101491.45
2023-01-25T10:07:16.174Z,101488.69
2023-01-25T10:10:28.720Z,101484.20
2023-01-25T10:12:56.998Z,101484.94
2023-01-25T10:15:33.208Z,101484.33
2023-01-25T10:18:18.392Z,101475.65
2023-01-25T10:20:55.767Z,101473.75
2023-01-25T10:23:46.089Z,101469.86
2023-01-25T10:26:27.021Z,101468.27
2023-01-25T10:29:00.146Z,101464.89
2023-01-25T10:31:45.350Z,101460.91
2023-01-25T10:34:56.279Z,101457.73
2023-01-25T10:37:32.964Z,101455.04
2023-01-25T10:40:01.137Z,101446.63
2023-01-25T10:42:38.167Z,101438.80
2023-01-25T10:45:14.901Z,101438.20
2023-01-25T10:47:48.529Z,101432.39
2023-01-25T10:50:46.588Z,101431.04
2023-01-25T10:53:39.634Z,101428.40
2023-01-25T10:56:30.025Z,101422.61
2023-01-25T10:59:16.532Z,101418.66
2023-01-25T11:01:45.071Z,101414.21
2023-01-25T11:04:36.340Z,101409.58
2023-01-25T11:07:06.431Z,101404.64
2023-01-25T11:09:37.739Z,101401.48
2023-01-25T11:12:12.150Z,101399.45
2023-01-25T11:14:42.608Z,101396.63
2023-01-25T11:17:26.952Z,101392.52
2023-01-25T11:20:20.856Z,101386.11
2023-01-25T11:22:54.457Z,101386.81
2023-01-25T11:25:25.640Z,101380.14
2023-01-25T11:28:25.024Z,101382.54
2023-01-25T11:30:54.075Z,101383.73
2023-01-25T11:33:23.025Z,101381.66
2023-01-25T11:36:11.347Z,101374.43
2023-01-25T11:38:51.787Z,101368.04
2023-01-25T11:41:39.418Z,101366.41
2023-01-25T11:44:29.626Z,101361.13
2023-01-25T11:47:06.597Z,101355.65
2023-01-25T11:50:02.813Z,101355.00
2023-01-25T11:52:45.969Z,101349.95
2023-01-25T11:55:38.997Z,101341.33
2023-01-25T11:58:58.765Z,101341.86
2023-01-25T12:01:38.843Z,101339.02
2023-01-25T12:04:42.466Z,101335.88
2023-01-25T12:07:48.638Z,101331.39
2023-01-25T12:10:37.567Z,101327.95
2023-01-25T12:13:21.416Z,101324.38
2023-01-25T12:16:06.989Z,101325.14
2023-01-25T12:18:55.424Z,101322.23
2023-01-25T12:21:47.973Z,101319.11
2023-01-25T12:24:52.411Z,101315.03
2023-01-25T12:27:59.045Z,101312.21
2023-01-25T12:30:39.356Z,101309.31
2023-01-25T12:33:18.297Z,101306.00
2023-01-25T12:35:59.552Z,101302.89
2023-01-25T12:38:37.064Z,101298.61
2023-01-25T12:41:08.484Z,101293.77
2023-01-25T12:43:44.907Z,101292.16
2023-01-25T12:46:29.850Z,101289.10
2023-01-25T12:49:06.404Z,101285.14
2023-01-25T12:51:42.415Z,101281.63
2023-01-25T12:54:37.484Z,101278.95
2023-01-25T12:57:27.208Z,101275.95
2023-01-25T13:00:04.553Z,101276.60
2023-01-25T13:02:50.676Z,101272.56
2023-01-25T13:05:34.345Z,101271.50
2023-01-25T13:08:23.219Z,101268.89
2023-01-25T13:11:28.639Z,101270.78
2023-01-25T13:14:31.075Z,101264.81
2023-01-25T13:17:30.478Z,101264.27
2023-01-25T13:19:59.975Z,101260.88
2023-01-25T13:22:43.470Z,101259.21
2023-01-25T13:25:20.517Z,101263.09
2023-01-25T13:27:48.817Z,101261.80
2023-01-25T13:30:16.876Z,101259.67
2023-01-25T13:32:45.414Z,101260.79
2023-01-25T13:35:44.828Z,101259.69
2023-01-25T13:38:36.017Z,101255.70
2023-01-25T13:41:14.487Z,101251.40
2023-01-25T13:43:45.185Z,101248.52
2023-01-25T13:46:22.180Z,101248.79
2023-01-25T13:48:57.592Z,101248.98
2023-01-25T13:51:29.720Z,101244.90
2023-01-25T13:54:00.495Z,101247.13
2023-01-25T13:56:35.444Z,101243.95
2023-01-25T13:59:03.833Z,101243.15
2023-01-25T14:01:35.491Z,101241.42
2023-01-25T14:04:05.137Z,101236.88
2023-01-25T14:06:38.356Z,101232.61
2023-01-25T14:09:16.775Z,101228.99
2023-01-25T14:12:08.858Z,101227.13
2023-01-25T14:14:38.590Z,101225.71
2023-01-25T14:17:22.203Z,101223.36
2023-01-25T14:20:01.183Z,101223.18
2023-01-25T14:22:31.618Z,101220.00
2023-01-25T14:25:10.930Z,101218.23
2023-01-25T14:27:51.556Z,101214.90
2023-01-25T14:30:34.787Z,101213.73
2023-01-25T14:33:24.777Z,101216.89
2023-01-25T14:35:57.322Z,101216.38
2023-01-25T14:38:31.611Z,101216.12
2023-01-25T14:41:12.375Z,101215.23
2023-01-25T14:43:49.298Z,101216.05
2023-01-25T14:46:20.584Z,101213.78
2023-01-25T14:48:48.881Z,101211.66
2023-01-25T14:51:30.308Z,101210.83
2023-01-25T14:54:05.239Z,101205.98
2023-01-25T14:56:45.709Z,101203.77
2023-01-25T14:59:22.176Z,101203.16
2023-01-25T15:01:54.915Z,101201.33
2023-01-25T15:04:26.700Z,101199.73
2023-01-25T15:06:57.464Z,101196.33
2023-01-25T15:09:37.526Z,101193.36
2023-01-25T15:12:26.095Z,101197.31
2023-01-25T15:14:56.195Z,101198.17
2023-01-25T15:17:45.556Z,101200.46
2023-01-25T15:20:39.669Z,101202.42
2023-01-25T15:23:23.180Z,101199.42
2023-01-25T15:25:56.708Z,101198.55
2023-01-25T15:28:27.804Z,101200.77
2023-01-25T15:30:58.454Z,101202.82
2023-01-25T15:33:28.896Z,101203.88
2023-01-25T15:35:57.483Z,101203.06
2023-01-25T15:38:26.095Z,101204.89
2023-01-25T15:41:00.471Z,101206.39
2023-01-25T15:43:28.970Z,101205.89
2023-01-25T15:46:28.103Z,101202.55
2023-01-25T15:48:59.240Z,101204.47
2023-01-25T15:51:35.324Z,101203.49
2023-01-25T15:54:05.548Z,101204.08
2023-01-25T15:56:37.327Z,101208.14
2023-01-25T15:59:08.231Z,101212.08
2023-01-25T16:01:36.410Z,101205.48
2023-01-25T16:04:04.689Z,101209.71
2023-01-25T16:06:42.010Z,101206.45
2023-01-25T16:09:15.162Z,101204.80
2023-01-25T16:11:43.749Z,101202.32
2023-01-25T16:14:13.712Z,101199.29
2023-01-25T16:16:46.015Z,101196.23
2023-01-25T16:19:16.541Z,101193.21
2023-01-25T16:21:44.729Z,101193.59
2023-01-25T16:24:13.445Z,101194.46
2023-01-25T16:26:48.380Z,101194.27
2023-01-25T16:29:16.540Z,101196.81
2023-01-25T16:31:44.785Z,101192.33
2023-01-25T16:34:12.999Z,101188.66
2023-01-25T16:36:41.452Z,101188.86
2023-01-25T16:39:16.540Z,101188.49
2023-01-25T16:41:44.641Z,101187.80
2023-01-25T16:44:13.307Z,101186.95
2023-01-25T16:46:41.713Z,101187.52
2023-01-25T16:49:19.418Z,101182.23
2023-01-25T16:51:51.930Z,101178.10
2023-01-25T16:54:21.305Z,101175.50
2023-01-25T16:56:51.163Z,101170.20
2023-01-25T16:59:20.435Z,101168.62
2023-01-25T17:01:49.168Z,101168.83
2023-01-25T17:04:18.285Z,101168.71
2023-01-25T17:06:50.374Z,101168.05
2023-01-25T17:09:24.017Z,101165.41
2023-01-25T17:11:54.371Z,101159.31
2023-01-25T17:14:24.582Z,101157.03
2023-01-25T17:16:53.809Z,101158.04
2023-01-25T17:19:23.852Z,101156.05
2023-01-25T17:21:52.104Z,101153.56
2023-01-25T17:24:21.904Z,101151.04
2023-01-25T17:26:52.719Z,101148.45
2023-01-25T17:29:22.103Z,101143.46
2023-01-25T17:31:51.382Z,101143.47
2023-01-25T17:34:19.939Z,101140.60
2023-01-25T17:36:52.709Z,101140.05
2023-01-25T17:39:23.233Z,101139.52
2023-01-25T17:41:54.650Z,101135.39
2023-01-25T17:44:23.615Z,101128.88
2023-01-25T17:46:52.099Z,101127.84
2023-01-25T17:49:25.422Z,101125.74
2023-01-25T17:51:53.719Z,101127.27
2023-01-25T17:54:25.043Z,101124.56
2023-01-25T17:56:54.816Z,101123.42
2023-01-25T17:59:25.880Z,101121.08
2023-01-25T18:01:54.212Z,101122.86
2023-01-25T18:04:22.656Z,101127.05
2023-01-25T18:06:51.187Z,101122.67
2023-01-25T18:09:19.442Z,101123.88
2023-01-25T18:11:48.317Z,101123.67
2023-01-25T18:14:17.504Z,101122.27
2023-01-25T18:16:46.025Z,101124.90
2023-01-25T18:19:14.237Z,101121.15
2023-01-25T18:21:43.429Z,101117.84
2023-01-25T18:24:27.830Z,101116.35
2023-01-25T18:27:09.140Z,101116.73
2023-01-25T18:29:56.044Z,101117.19
2023-01-25T18:32:24.378Z,101116.77
2023-01-25T18:34:55.518Z,101115.42
2023-01-25T18:37:28.103Z,101113.84
2023-01-25T18:39:56.950Z,101109.50
2023-01-25T18:42:27.331Z,101112.73
2023-01-25T18:44:58.134Z,101107.77
2023-01-25T18:47:29.366Z,101102.61
2023-01-25T18:49:57.810Z,101099.50
2023-01-25T18:52:26.367Z,101100.23
2023-01-25T18:54:54.828Z,101100.92
2023-01-25T18:57:23.604Z,101097.51
2023-01-25T18:59:52.250Z,101095.01
2023-01-25T19:02:21.443Z,101088.55
2023-01-25T19:04:54.640Z,101085.89
2023-01-25T19:07:22.903Z,101085.11
2023-01-25T19:09:50.938Z,101085.66
2023-01-25T19:12:19.034Z,101084.02
2023-01-25T19:14:47.245Z,101084.82
2023-01-25T19:17:17.249Z,101080.15
2023-01-25T19:19:47.793Z,101072.42
2023-01-25T19:22:21.724Z,101066.46
2023-01-25T19:24:53.284Z,101066.69
2023-01-25T19:27:23.877Z,101069.62
2023-01-25T19:29:54.377Z,101068.69
2023-01-25T19:32:22.937Z,101065.80
2023-01-25T19:34:51.631Z,101065.52
2023-01-25T19:37:20.186Z,101058.71
2023-01-25T19:39:51.871Z,101055.38
2023-01-25T19:42:20.679Z,101049.76
2023-01-25T19:44:50.936Z,101050.74
2023-01-25T19:47:19.097Z,101052.08
2023-01-25T19:49:48.563Z,101053.19
2023-01-25T19:52:19.641Z,101052.69
2023-01-25T19:54:55.008Z,101052.02
2023-01-25T19:57:23.450Z,101046.86
2023-01-25T19:59:52.102Z,101043.09
2023-01-25T20:02:20.240Z,101039.77
2023-01-25T20:04:51.877Z,101037.05
2023-01-25T20:07:23.044Z,101031.98
2023-01-25T20:09:54.019Z,101031.25
2023-01-25T20:12:34.689Z,101027.62
2023-01-25T20:15:05.219Z,101025.59
2023-01-25T20:17:36.780Z,101020.30
2023-01-25T20:20:05.418Z,101020.38
2023-01-25T20:22:36.933Z,101014.77
2023-01-25T20:25:05.625Z,101014.13
2023-01-25T20:27:33.848Z,101013.56
2023-01-25T20:30:04.498Z,101006.42
2023-01-25T20:32:38.054Z,101004.00
2023-01-25T20:35:08.917Z,100999.75
2023-01-25T20:37:40.719Z,100999.66
2023-01-25T20:40:09.232Z,100994.73
2023-01-25T20:42:37.445Z,100993.23
2023-01-25T20:45:05.919Z,100990.86
2023-01-25T20:47:35.980Z,100990.66
2023-01-25T20:50:06.621Z,100988.85
2023-01-25T20:52:34.770Z,100990.37
2023-01-25T20:55:02.929Z,100988.84
2023-01-25T20:57:30.902Z,100989.66
2023-01-25T20:59:59.034Z,100986.05
2023-01-25T21:02:27.109Z,100984.77
2023-01-25T21:04:55.223Z,100980.58
2023-01-25T21:07:24.686Z,100975.68
2023-01-25T21:09:52.751Z,100972.75
2023-01-25T21:12:20.933Z,100970.64
2023-01-25T21:14:51.594Z,100970.20
2023-01-25T21:17:19.671Z,100971.66
2023-01-25T21:19:47.994Z,100971.45
2023-01-25T21:22:16.178Z,100973.05
2023-01-25T21:24:44.180Z,100970.55
2023-01-25T21:27:15.249Z,100971.96
2023-01-25T21:29:43.425Z,100971.90
2023-01-25T21:32:11.736Z,100965.91
2023-01-25T21:34:39.885Z,100966.55
2023-01-25T21:37:08.053Z,100967.64
2023-01-25T21:39:36.151Z,100965.92
2023-01-25T21:42:09.387Z,100963.19
2023-01-25T21:44:56.278Z,100962.89
2023-01-25T21:47:30.312Z,100962.23
2023-01-25T21:50:19.466Z,100959.00
2023-01-25T21:52:48.365Z,100956.83
2023-01-25T21:55:17.855Z,100958.05
2023-01-25T21:57:47.423Z,100956.98
2023-01-25T22:00:18.674Z,100956.64
2023-01-25T22:02:46.904Z,100954.55
2023-01-25T22:05:17.121Z,100961.23
2023-01-25T22:07:45.317Z,100958.73
2023-01-25T22:10:13.502Z,100955.13
2023-01-25T22:12:41.637Z,100947.42
2023-01-25T22:15:09.812Z,100946.10
2023-01-25T22:17:40.405Z,100947.27
2023-01-25T22:20:10.022Z,100943.93
2023-01-25T22:22:38.493Z,100941.85
2023-01-25T22:25:08.971Z,100935.75
2023-01-25T22:27:41.119Z,100927.45
2023-01-25T22:30:12.107Z,100928.34
2023-01-25T22:32:40.436Z,100927.95
2023-01-25T22:35:09.398Z,100926.96
2023-01-25T22:37:39.865Z,100921.74
2023-01-25T22:40:12.069Z,100922.20
2023-01-25T22:42:48.921Z,100921.75
2023-01-25T22:45:17.110Z,100920.08
2023-01-25T22:47:47.038Z,100917.52
2023-01-25T22:50:19.502Z,100918.69
2023-01-25T22:52:51.287Z,100913.91
2023-01-25T22:55:21.802Z,100906.58
2023-01-25T22:57:49.865Z,100905.37
2023-01-25T23:00:20.509Z,100906.02
2023-01-25T23:02:48.602Z,100900.95
2023-01-25T23:05:31.176Z,100895.41
2023-01-25T23:07:59.398Z,100893.05
2023-01-25T23:10:29.067Z,100894.45
2023-01-25T23:12:57.345Z,100894.55
2023-01-25T23:15:25.702Z,100892.41
2023-01-25T23:18:30.636Z,100889.52
2023-01-25T23:21:03.914Z,100890.26
2023-01-25T23:23:38.595Z,100888.84
2023-01-25T23:26:16.581Z,100887.45
2023-01-25T23:28:56.650Z,100885.21
2023-01-25T23:31:29.552Z,100880.55
2023-01-25T23:34:02.113Z,100876.63
2023-01-25T23:36:34.043Z,100876.38
2023-01-25T23:39:05.630Z,100871.61
2023-01-25T23:41:36.056Z,100870.80
2023-01-25T23:44:07.286Z,100868.92
2023-01-25T23:46:35.416Z,100864.34
2023-01-25T23:49:03.625Z,100861.45
2023-01-25T23:51:31.770Z,100856.86
2023-01-25T23:53:59.809Z,100853.77
2023-01-25T23:56:27.887Z,100852.52
2023-01-25T23:58:58.331Z,100854.98
